createdAt,value
2022-08-29T00:00:48.909Z,11.76
2022-08-29T00:01:48.918Z,11.82
2022-08-29T00:02:48.916Z,11.77
2022-08-29T00:03:48.989Z,11.77
2022-08-29T00:04:48.894Z,11.80
2022-08-29T00:05:50.207Z,11.79
2022-08-29T00:06:48.896Z,11.74
2022-08-29T00:07:48.896Z,11.93
2022-08-29T00:08:48.894Z,11.93
2022-08-29T00:09:48.866Z,12.03
2022-08-29T00:10:48.848Z,12.11
2022-08-29T00:11:48.864Z,12.07
2022-08-29T00:12:48.854Z,12.15
2022-08-29T00:13:48.831Z,12.03
2022-08-29T00:14:48.859Z,11.96
2022-08-29T00:15:48.844Z,11.96
2022-08-29T00:16:48.955Z,11.77
2022-08-29T00:17:48.811Z,11.84
2022-08-29T00:18:48.828Z,11.66
2022-08-29T00:19:48.833Z,11.71
2022-08-29T00:20:48.802Z,11.74
2022-08-29T00:21:48.778Z,11.55
2022-08-29T00:22:48.792Z,11.62
2022-08-29T00:23:48.791Z,11.48
2022-08-29T00:24:48.765Z,11.62
2022-08-29T00:25:48.876Z,11.52
2022-08-29T00:26:48.768Z,11.52
2022-08-29T00:27:49.789Z,11.58
2022-08-29T00:28:48.764Z,11.51
2022-08-29T00:29:48.760Z,11.51
2022-08-29T00:30:48.771Z,11.56
2022-08-29T00:31:48.793Z,11.59
2022-08-29T00:32:48.743Z,11.59
2022-08-29T00:33:48.726Z,11.56
2022-08-29T00:34:49.668Z,11.48
2022-08-29T00:35:48.730Z,11.61
2022-08-29T00:36:49.008Z,11.49
2022-08-29T00:37:48.724Z,11.49
2022-08-29T00:38:49.527Z,11.52
2022-08-29T00:39:48.694Z,11.49
2022-08-29T00:40:51.715Z,11.56
2022-08-29T00:41:48.698Z,11.37
2022-08-29T00:42:48.673Z,11.45
2022-08-29T00:43:48.682Z,11.43
2022-08-29T00:44:48.658Z,11.33
2022-08-29T00:45:48.722Z,11.34
2022-08-29T00:46:48.644Z,11.20
2022-08-29T00:47:48.770Z,11.25
2022-08-29T00:48:48.649Z,11.23
2022-08-29T00:49:48.650Z,11.30
2022-08-29T00:50:48.635Z,11.31
2022-08-29T00:51:48.618Z,11.40
2022-08-29T00:52:48.655Z,11.34
2022-08-29T00:53:48.624Z,11.45
2022-08-29T00:54:48.615Z,11.54
2022-08-29T00:55:50.599Z,11.43
2022-08-29T00:56:48.624Z,11.48
2022-08-29T00:57:48.594Z,11.49
2022-08-29T00:58:48.711Z,11.31
2022-08-29T00:59:48.597Z,11.34
2022-08-29T01:00:48.622Z,11.23
2022-08-29T01:01:48.571Z,11.19
2022-08-29T01:02:48.554Z,11.16
2022-08-29T01:03:48.590Z,11.22
2022-08-29T01:04:48.549Z,11.11
2022-08-29T01:05:48.526Z,11.01
2022-08-29T01:06:48.524Z,11.09
2022-08-29T01:07:48.550Z,10.95
2022-08-29T01:08:48.536Z,10.97
2022-08-29T01:09:48.645Z,10.94
2022-08-29T01:10:48.502Z,10.97
2022-08-29T01:11:48.522Z,10.98
2022-08-29T01:12:48.493Z,10.93
2022-08-29T01:13:48.503Z,10.93
2022-08-29T01:14:48.514Z,11.04
2022-08-29T01:15:48.496Z,10.95
2022-08-29T01:16:48.594Z,10.98
2022-08-29T01:17:48.490Z,11.00
2022-08-29T01:18:48.474Z,10.95
2022-08-29T01:19:48.472Z,11.03
2022-08-29T01:20:48.576Z,11.01
2022-08-29T01:21:48.448Z,11.00
2022-08-29T01:22:48.510Z,10.95
2022-08-29T01:23:48.462Z,11.00
2022-08-29T01:24:48.454Z,10.98
2022-08-29T01:25:49.108Z,10.93
2022-08-29T01:26:48.419Z,10.93
2022-08-29T01:27:48.404Z,10.98
2022-08-29T01:28:48.415Z,10.83
2022-08-29T01:29:48.406Z,10.93
2022-08-29T01:30:48.420Z,10.91
2022-08-29T01:31:57.451Z,11.03
2022-08-29T01:32:49.394Z,10.91
2022-08-29T01:33:48.400Z,10.94
2022-08-29T01:34:48.380Z,10.86
2022-08-29T01:35:48.380Z,10.85
2022-08-29T01:36:49.430Z,10.90
2022-08-29T01:37:48.365Z,10.87
2022-08-29T01:38:48.359Z,10.78
2022-08-29T01:39:48.350Z,10.76
2022-08-29T01:40:48.371Z,10.61
2022-08-29T01:41:48.353Z,10.78
2022-08-29T01:42:48.326Z,10.75
2022-08-29T01:43:48.316Z,10.75
2022-08-29T01:44:48.314Z,10.68
2022-08-29T01:45:48.408Z,10.75
2022-08-29T01:46:48.305Z,10.76
2022-08-29T01:47:48.303Z,10.61
2022-08-29T01:48:48.311Z,10.62
2022-08-29T01:49:48.307Z,10.76
2022-08-29T01:50:48.294Z,10.61
2022-08-29T01:51:48.311Z,10.70
2022-08-29T01:52:48.279Z,10.65
2022-08-29T01:53:48.282Z,10.65
2022-08-29T01:54:48.266Z,10.61
2022-08-29T01:55:48.308Z,10.65
2022-08-29T01:56:48.299Z,10.65
2022-08-29T01:57:48.248Z,10.60
2022-08-29T01:58:48.249Z,10.49
2022-08-29T01:59:48.239Z,10.58
2022-08-29T02:00:48.307Z,10.48
2022-08-29T02:01:48.238Z,10.49
2022-08-29T02:02:48.259Z,10.45
2022-08-29T02:03:48.211Z,10.42
2022-08-29T02:04:48.204Z,10.43
2022-08-29T02:05:48.201Z,10.41
2022-08-29T02:06:48.214Z,10.36
2022-08-29T02:07:48.229Z,10.39
2022-08-29T02:08:48.186Z,10.36
2022-08-29T02:09:48.192Z,10.28
2022-08-29T02:10:48.190Z,10.34
2022-08-29T02:11:48.160Z,10.31
2022-08-29T02:12:48.164Z,10.31
2022-08-29T02:13:48.165Z,10.31
2022-08-29T02:14:48.139Z,10.45
2022-08-29T02:15:48.150Z,10.35
2022-08-29T02:16:48.238Z,10.41
2022-08-29T02:17:48.568Z,10.34
2022-08-29T02:18:48.240Z,10.35
2022-08-29T02:19:48.122Z,10.24
2022-08-29T02:20:48.109Z,10.30
2022-08-29T02:21:48.145Z,10.27
2022-08-29T02:22:48.109Z,10.27
2022-08-29T02:23:48.105Z,10.23
2022-08-29T02:24:48.215Z,10.21
2022-08-29T02:25:48.101Z,10.27
2022-08-29T02:26:48.085Z,10.27
2022-08-29T02:27:48.075Z,10.27
2022-08-29T02:28:48.098Z,10.27
2022-08-29T02:29:48.107Z,10.18
2022-08-29T02:30:48.066Z,10.17
2022-08-29T02:31:48.125Z,10.20
2022-08-29T02:32:48.062Z,10.16
2022-08-29T02:33:48.045Z,10.14
2022-08-29T02:34:48.647Z,10.12
2022-08-29T02:35:48.169Z,10.14
2022-08-29T02:36:48.172Z,10.12
2022-08-29T02:37:48.016Z,10.08
2022-08-29T02:38:48.016Z,10.08
2022-08-29T02:39:47.995Z,10.08
2022-08-29T02:40:48.087Z,10.08
2022-08-29T02:41:47.984Z,10.09
2022-08-29T02:42:48.008Z,10.01
2022-08-29T02:43:47.985Z,10.09
2022-08-29T02:44:47.985Z,9.96
2022-08-29T02:45:47.964Z,9.93
2022-08-29T02:46:48.108Z,9.94
2022-08-29T02:47:47.961Z,10.01
2022-08-29T02:48:54.097Z,10.01
2022-08-29T02:49:48.940Z,10.03
2022-08-29T02:50:47.953Z,10.01
2022-08-29T02:51:47.974Z,10.03
2022-08-29T02:52:47.924Z,9.99
2022-08-29T02:53:47.915Z,9.93
2022-08-29T02:54:47.917Z,9.98
2022-08-29T02:55:47.917Z,9.96
2022-08-29T02:56:47.920Z,9.93
2022-08-29T02:57:48.011Z,9.94
2022-08-29T02:58:47.924Z,9.94
2022-08-29T02:59:47.899Z,9.88
2022-08-29T03:00:47.937Z,9.87
2022-08-29T03:01:47.964Z,9.90
2022-08-29T03:02:47.971Z,9.90
2022-08-29T03:03:47.872Z,9.88
2022-08-29T03:04:47.855Z,9.87
2022-08-29T03:05:47.861Z,9.91
2022-08-29T03:06:47.873Z,9.87
2022-08-29T03:07:50.792Z,9.94
2022-08-29T03:08:48.964Z,9.94
2022-08-29T03:09:47.826Z,9.84
2022-08-29T03:10:47.835Z,9.84
2022-08-29T03:11:47.839Z,9.90
2022-08-29T03:12:47.851Z,9.84
2022-08-29T03:13:47.793Z,9.85
2022-08-29T03:14:47.936Z,9.77
2022-08-29T03:15:47.858Z,9.78
2022-08-29T03:16:47.794Z,9.87
2022-08-29T03:17:47.785Z,9.80
2022-08-29T03:18:47.831Z,9.81
2022-08-29T03:19:47.880Z,9.83
2022-08-29T03:20:47.778Z,9.80
2022-08-29T03:21:47.782Z,9.84
2022-08-29T03:22:47.753Z,9.73
2022-08-29T03:23:47.750Z,9.70
2022-08-29T03:24:47.758Z,9.70
2022-08-29T03:25:47.778Z,9.73
2022-08-29T03:26:47.732Z,9.83
2022-08-29T03:27:48.745Z,9.72
2022-08-29T03:28:47.733Z,9.72
2022-08-29T03:29:47.721Z,9.83
2022-08-29T03:30:47.740Z,9.69
2022-08-29T03:31:47.746Z,9.72
2022-08-29T03:32:47.722Z,9.66
2022-08-29T03:33:47.693Z,9.67
2022-08-29T03:34:47.694Z,9.63
2022-08-29T03:35:47.693Z,9.59
2022-08-29T03:36:47.792Z,9.59
2022-08-29T03:37:47.685Z,9.59
2022-08-29T03:38:47.679Z,9.70
2022-08-29T03:39:47.659Z,9.65
2022-08-29T03:40:47.676Z,9.69
2022-08-29T03:41:47.685Z,9.75
2022-08-29T03:42:47.652Z,9.75
2022-08-29T03:43:47.657Z,9.75
2022-08-29T03:44:47.635Z,9.73
2022-08-29T03:45:47.631Z,9.77
2022-08-29T03:46:47.738Z,9.69
2022-08-29T03:47:47.749Z,9.66
2022-08-29T03:48:47.611Z,9.66
2022-08-29T03:49:47.639Z,9.60
2022-08-29T03:50:47.615Z,9.54
2022-08-29T03:51:47.612Z,9.47
2022-08-29T03:52:47.610Z,9.60
2022-08-29T03:53:47.574Z,9.63
2022-08-29T03:54:47.594Z,9.57
2022-08-29T03:55:47.572Z,9.60
2022-08-29T03:56:47.575Z,9.52
2022-08-29T03:57:47.589Z,9.47
2022-08-29T03:58:52.549Z,9.44
2022-08-29T03:59:47.573Z,9.41
2022-08-29T04:00:47.548Z,9.44
2022-08-29T04:01:47.572Z,9.44
2022-08-29T04:02:47.549Z,9.44
2022-08-29T04:03:47.561Z,9.48
2022-08-29T04:04:47.547Z,9.36
2022-08-29T04:05:47.515Z,9.37
2022-08-29T04:06:47.517Z,9.40
2022-08-29T04:07:47.519Z,9.32
2022-08-29T04:08:47.499Z,9.36
2022-08-29T04:09:47.523Z,9.44
2022-08-29T04:10:47.495Z,9.47
2022-08-29T04:11:47.482Z,9.48
2022-08-29T04:12:51.203Z,9.41
2022-08-29T04:13:47.507Z,9.47
2022-08-29T04:14:47.491Z,9.41
2022-08-29T04:15:47.509Z,9.51
2022-08-29T04:16:47.475Z,9.47
2022-08-29T04:17:52.738Z,9.45
2022-08-29T04:18:47.451Z,9.47
2022-08-29T04:21:56.915Z,9.47
2022-08-29T04:22:44.870Z,9.41
2022-08-29T04:23:44.844Z,9.34
2022-08-29T04:24:44.850Z,9.33
2022-08-29T04:25:44.866Z,9.36
2022-08-29T04:26:44.833Z,9.40
2022-08-29T04:27:45.004Z,9.33
2022-08-29T04:28:44.833Z,9.37
2022-08-29T04:29:44.831Z,9.34
2022-08-29T04:30:50.390Z,9.41
2022-08-29T04:31:44.868Z,9.44
2022-08-29T04:32:44.798Z,9.51
2022-08-29T04:33:44.820Z,9.55
2022-08-29T04:34:45.897Z,9.37
2022-08-29T04:35:45.897Z,9.37
2022-08-29T04:36:45.898Z,9.50
2022-08-29T04:37:45.883Z,9.48
2022-08-29T04:38:45.913Z,9.47
2022-08-29T04:39:45.875Z,9.41
2022-08-29T04:40:45.839Z,9.47
2022-08-29T04:41:45.865Z,9.45
2022-08-29T04:42:45.834Z,9.40
2022-08-29T04:43:45.839Z,9.48
2022-08-29T04:44:45.891Z,9.44
2022-08-29T04:45:45.811Z,9.45
2022-08-29T04:46:45.845Z,9.47
2022-08-29T04:47:45.800Z,9.45
2022-08-29T04:48:45.808Z,9.50
2022-08-29T04:49:45.926Z,9.60
2022-08-29T04:50:45.796Z,9.55
2022-08-29T04:51:45.797Z,9.52
2022-08-29T04:52:45.774Z,9.59
2022-08-29T04:53:45.775Z,9.52
2022-08-29T04:54:45.777Z,9.45
2022-08-29T04:55:45.777Z,9.55
2022-08-29T04:56:47.388Z,9.63
2022-08-29T04:57:45.762Z,9.62
2022-08-29T04:58:45.725Z,9.55
2022-08-29T04:59:45.729Z,9.54
2022-08-29T05:00:45.737Z,9.45
2022-08-29T05:01:45.803Z,9.55
2022-08-29T05:02:45.755Z,9.60
2022-08-29T05:03:45.708Z,9.59
2022-08-29T05:04:45.717Z,9.60
2022-08-29T05:05:45.705Z,9.67
2022-08-29T05:06:45.724Z,9.54
2022-08-29T05:07:45.691Z,9.55
2022-08-29T05:08:45.680Z,9.66
2022-08-29T05:09:45.678Z,9.67
2022-08-29T05:10:45.682Z,9.67
2022-08-29T05:11:45.690Z,9.69
2022-08-29T05:12:45.659Z,9.70
2022-08-29T05:13:45.657Z,9.78
2022-08-29T05:14:45.648Z,9.83
2022-08-29T05:15:45.672Z,9.85
2022-08-29T05:16:45.623Z,9.83
2022-08-29T05:17:45.717Z,9.96
2022-08-29T05:18:45.614Z,9.88
2022-08-29T05:19:45.622Z,9.98
2022-08-29T05:20:45.579Z,9.99
2022-08-29T05:21:45.601Z,10.06
2022-08-29T05:22:45.710Z,10.12
2022-08-29T05:23:45.591Z,10.12
2022-08-29T05:24:45.583Z,10.18
2022-08-29T05:25:45.569Z,10.26
2022-08-29T05:26:45.582Z,10.28
2022-08-29T05:27:45.553Z,10.35
2022-08-29T05:28:45.571Z,10.34
2022-08-29T05:29:45.533Z,10.38
2022-08-29T05:30:45.584Z,10.46
2022-08-29T05:31:45.872Z,10.48
2022-08-29T05:32:45.545Z,10.55
2022-08-29T05:33:45.629Z,10.76
2022-08-29T05:34:45.506Z,10.73
2022-08-29T05:35:45.522Z,10.70
2022-08-29T05:36:45.507Z,10.83
2022-08-29T05:37:46.499Z,10.97
2022-08-29T05:38:45.491Z,11.00
2022-08-29T05:39:45.594Z,11.03
2022-08-29T05:40:45.490Z,11.15
2022-08-29T05:41:45.475Z,11.18
2022-08-29T05:42:45.479Z,11.20
2022-08-29T05:43:45.473Z,11.19
2022-08-29T05:44:45.557Z,11.23
2022-08-29T05:45:45.473Z,11.28
2022-08-29T05:46:45.529Z,11.27
2022-08-29T05:47:49.916Z,11.31
2022-08-29T05:48:45.441Z,11.37
2022-08-29T05:49:45.429Z,11.48
2022-08-29T05:50:45.452Z,11.51
2022-08-29T05:51:45.419Z,11.51
2022-08-29T05:52:45.401Z,11.54
2022-08-29T05:53:45.417Z,11.61
2022-08-29T05:54:45.414Z,11.62
2022-08-29T05:55:45.434Z,11.71
2022-08-29T05:56:45.392Z,11.82
2022-08-29T05:57:45.376Z,11.74
2022-08-29T05:58:45.392Z,11.89
2022-08-29T05:59:45.400Z,11.80
2022-08-29T06:00:45.377Z,11.85
2022-08-29T06:01:45.462Z,11.93
2022-08-29T06:02:45.487Z,11.95
2022-08-29T06:03:46.152Z,12.00
2022-08-29T06:04:47.014Z,12.11
2022-08-29T06:05:45.345Z,12.21
2022-08-29T06:06:45.433Z,12.32
2022-08-29T06:07:45.337Z,12.44
2022-08-29T06:08:45.329Z,12.41
2022-08-29T06:09:45.337Z,12.62
2022-08-29T06:10:45.318Z,12.69
2022-08-29T06:11:46.343Z,12.73
2022-08-29T06:12:45.314Z,12.83
2022-08-29T06:13:45.914Z,12.87
2022-08-29T06:14:50.090Z,13.14
2022-08-29T06:15:45.356Z,13.23
2022-08-29T06:16:45.274Z,13.13
2022-08-29T06:17:45.375Z,13.14
2022-08-29T06:18:45.256Z,13.23
2022-08-29T06:19:45.264Z,13.55
2022-08-29T06:20:45.253Z,13.79
2022-08-29T06:21:45.292Z,13.91
2022-08-29T06:22:45.348Z,14.04
2022-08-29T06:23:45.244Z,14.34
2022-08-29T06:24:45.909Z,14.69
2022-08-29T06:25:45.226Z,15.04
2022-08-29T06:26:45.241Z,15.20
2022-08-29T06:27:45.219Z,15.22
2022-08-29T06:28:45.332Z,15.30
2022-08-29T06:29:45.198Z,15.38
2022-08-29T06:30:45.278Z,15.65
2022-08-29T06:31:45.201Z,15.90
2022-08-29T06:32:45.180Z,15.88
2022-08-29T06:33:45.289Z,15.96
2022-08-29T06:34:45.160Z,15.98
2022-08-29T06:35:46.174Z,15.96
2022-08-29T06:36:45.157Z,15.90
2022-08-29T06:37:45.193Z,15.88
2022-08-29T06:38:45.134Z,16.09
2022-08-29T06:39:45.256Z,16.17
2022-08-29T06:40:45.200Z,16.32
2022-08-29T06:41:45.123Z,16.43
2022-08-29T06:42:45.112Z,16.42
2022-08-29T06:43:46.102Z,16.55
2022-08-29T06:44:45.217Z,16.97
2022-08-29T06:45:45.090Z,17.16
2022-08-29T06:46:45.092Z,17.34
2022-08-29T06:47:45.080Z,17.57
2022-08-29T06:48:45.090Z,17.79
2022-08-29T06:49:45.078Z,18.06
2022-08-29T06:50:46.021Z,17.93
2022-08-29T06:51:45.061Z,17.81
2022-08-29T06:52:47.023Z,17.62
2022-08-29T06:53:45.038Z,17.56
2022-08-29T06:54:45.046Z,17.65
2022-08-29T06:55:45.070Z,17.88
2022-08-29T06:56:45.013Z,17.83
2022-08-29T06:57:45.049Z,17.87
2022-08-29T06:58:45.010Z,18.18
2022-08-29T06:59:45.017Z,18.36
2022-08-29T07:00:49.041Z,18.51
2022-08-29T07:01:45.156Z,18.86
2022-08-29T07:02:45.057Z,19.26
2022-08-29T07:03:45.001Z,19.81
2022-08-29T07:04:44.974Z,20.44
2022-08-29T07:05:44.992Z,20.85
2022-08-29T07:06:45.107Z,21.45
2022-08-29T07:07:45.002Z,22.01
2022-08-29T07:08:54.948Z,22.68
2022-08-29T07:09:44.965Z,22.67
2022-08-29T07:10:44.980Z,23.01
2022-08-29T07:11:44.935Z,23.07
2022-08-29T07:12:44.974Z,23.10
2022-08-29T07:13:44.931Z,23.59
2022-08-29T07:14:44.931Z,24.25
2022-08-29T07:15:44.941Z,24.40
2022-08-29T07:16:44.928Z,24.31
2022-08-29T07:17:44.952Z,24.66
2022-08-29T07:18:44.908Z,25.06
2022-08-29T07:19:44.897Z,25.41
2022-08-29T07:20:44.917Z,25.75
2022-08-29T07:21:45.427Z,26.30
2022-08-29T07:22:44.892Z,26.26
2022-08-29T07:23:44.918Z,25.52
2022-08-29T07:24:44.873Z,24.55
2022-08-29T07:25:44.864Z,24.45
2022-08-29T07:26:44.864Z,23.03
2022-08-29T07:27:44.870Z,22.74
2022-08-29T07:28:46.187Z,22.89
2022-08-29T07:29:47.656Z,23.46
2022-08-29T07:30:46.896Z,23.69
2022-08-29T07:31:44.827Z,23.37
2022-08-29T07:32:44.832Z,22.52
2022-08-29T07:33:44.843Z,22.43
2022-08-29T07:34:44.935Z,22.73
2022-08-29T07:35:44.821Z,22.93
2022-08-29T07:36:44.816Z,23.08
2022-08-29T07:37:47.782Z,23.37
2022-08-29T07:38:45.808Z,23.25
2022-08-29T07:39:44.910Z,23.14
2022-08-29T07:40:44.833Z,23.11
2022-08-29T07:41:44.778Z,23.14
2022-08-29T07:42:44.784Z,23.45
2022-08-29T07:43:44.771Z,23.44
2022-08-29T07:44:44.753Z,23.22
2022-08-29T07:45:44.893Z,22.74
2022-08-29T07:46:44.759Z,22.92
2022-08-29T07:47:44.735Z,23.33
2022-08-29T07:48:44.741Z,23.45
2022-08-29T07:49:44.744Z,23.34
2022-08-29T07:50:44.747Z,23.41
2022-08-29T07:51:44.917Z,23.21
2022-08-29T07:52:44.732Z,22.80
2022-08-29T07:53:44.719Z,22.93
2022-08-29T07:54:44.707Z,22.76
2022-08-29T07:55:44.703Z,22.59
2022-08-29T07:56:44.793Z,22.37
2022-08-29T07:57:44.691Z,22.64
2022-08-29T07:58:44.704Z,22.83
2022-08-29T07:59:44.666Z,22.85
2022-08-29T08:00:44.674Z,22.92
2022-08-29T08:01:44.780Z,22.91
2022-08-29T08:02:44.726Z,22.77
2022-08-29T08:03:44.656Z,22.86
2022-08-29T08:04:44.672Z,23.04
2022-08-29T08:05:44.664Z,23.10
2022-08-29T08:06:44.655Z,23.07
2022-08-29T08:07:44.673Z,23.33
2022-08-29T08:08:44.641Z,23.21
2022-08-29T08:09:44.631Z,22.96
2022-08-29T08:10:47.836Z,22.06
2022-08-29T08:11:44.649Z,21.38
2022-08-29T08:12:44.722Z,21.40
2022-08-29T08:13:44.607Z,22.21
2022-08-29T08:14:44.604Z,22.51
2022-08-29T08:15:44.613Z,22.80
2022-08-29T08:16:44.932Z,22.74
2022-08-29T08:17:44.567Z,22.34
2022-08-29T08:18:44.718Z,22.06
2022-08-29T08:19:44.575Z,22.13
2022-08-29T08:20:44.575Z,22.48
2022-08-29T08:21:49.963Z,22.49
2022-08-29T08:22:44.555Z,22.59
2022-08-29T08:23:44.671Z,22.53
2022-08-29T08:24:44.538Z,22.37
2022-08-29T08:25:44.545Z,22.31
2022-08-29T08:26:45.448Z,22.98
2022-08-29T08:27:44.520Z,24.22
2022-08-29T08:28:44.579Z,25.01
2022-08-29T08:29:44.564Z,25.52
2022-08-29T08:30:44.531Z,26.08
2022-08-29T08:31:44.512Z,26.51
2022-08-29T08:32:47.423Z,27.03
2022-08-29T08:33:45.565Z,27.25
2022-08-29T08:34:44.596Z,27.27
2022-08-29T08:35:46.838Z,27.31
2022-08-29T08:36:44.487Z,27.01
2022-08-29T08:37:44.483Z,26.79
2022-08-29T08:38:44.478Z,26.23
2022-08-29T08:39:44.457Z,26.03
2022-08-29T08:40:44.539Z,25.85
2022-08-29T08:41:44.474Z,25.89
2022-08-29T08:42:44.461Z,25.53
2022-08-29T08:43:44.470Z,25.36
2022-08-29T08:44:44.466Z,25.98
2022-08-29T08:45:44.564Z,26.48
2022-08-29T08:46:44.562Z,26.31
2022-08-29T08:47:45.100Z,26.26
2022-08-29T08:48:44.450Z,25.98
2022-08-29T08:49:44.426Z,26.10
2022-08-29T08:50:44.453Z,26.12
2022-08-29T08:51:44.633Z,26.07
2022-08-29T08:52:44.419Z,25.19
2022-08-29T08:53:44.394Z,24.68
2022-08-29T08:54:44.395Z,24.31
2022-08-29T08:55:44.387Z,24.85
2022-08-29T08:56:44.522Z,24.48
2022-08-29T08:57:44.459Z,24.51
2022-08-29T08:58:44.363Z,25.18
2022-08-29T08:59:45.410Z,25.82
2022-08-29T09:00:44.366Z,26.49
2022-08-29T09:01:44.460Z,27.38
2022-08-29T09:02:44.566Z,27.32
2022-08-29T09:03:44.359Z,26.86
2022-08-29T09:04:44.336Z,26.43
2022-08-29T09:05:48.973Z,26.24
2022-08-29T09:06:45.329Z,26.23
2022-08-29T09:07:44.435Z,26.28
2022-08-29T09:08:44.303Z,26.39
2022-08-29T09:09:44.343Z,26.28
2022-08-29T09:10:44.323Z,26.10
2022-08-29T09:11:44.318Z,26.36
2022-08-29T09:12:44.302Z,26.57
2022-08-29T09:13:44.327Z,26.68
2022-08-29T09:14:44.287Z,26.30
2022-08-29T09:15:44.289Z,26.20
2022-08-29T09:16:44.374Z,26.34
2022-08-29T09:17:44.274Z,25.86
2022-08-29T09:18:44.312Z,26.07
2022-08-29T09:19:45.255Z,25.61
2022-08-29T09:20:44.352Z,26.11
2022-08-29T09:21:44.240Z,26.23
2022-08-29T09:22:44.239Z,25.98
2022-08-29T09:23:44.391Z,26.03
2022-08-29T09:24:44.385Z,26.15
2022-08-29T09:25:44.238Z,26.45
2022-08-29T09:26:44.229Z,26.86
2022-08-29T09:27:44.916Z,27.04
2022-08-29T09:28:44.213Z,27.22
2022-08-29T09:29:44.305Z,27.30
2022-08-29T09:30:44.273Z,27.20
2022-08-29T09:31:44.320Z,27.13
2022-08-29T09:32:44.189Z,26.86
2022-08-29T09:33:44.182Z,26.64
2022-08-29T09:35:07.989Z,26.70
2022-08-29T09:35:46.318Z,26.68
2022-08-29T09:36:46.054Z,26.71
2022-08-29T09:37:44.160Z,26.58
2022-08-29T09:38:44.150Z,26.71
2022-08-29T09:39:46.020Z,26.83
2022-08-29T09:40:44.230Z,27.23
2022-08-29T09:41:44.242Z,27.42
2022-08-29T09:42:44.120Z,27.61
2022-08-29T09:43:44.119Z,27.34
2022-08-29T09:44:44.927Z,27.27
2022-08-29T09:45:44.156Z,26.97
2022-08-29T09:46:44.202Z,26.76
2022-08-29T09:47:44.120Z,26.83
2022-08-29T09:48:44.088Z,26.70
2022-08-29T09:49:44.087Z,26.48
2022-08-29T09:50:44.098Z,26.30
2022-08-29T09:51:44.077Z,26.76
2022-08-29T09:52:44.117Z,26.67
2022-08-29T09:53:44.053Z,25.88
2022-08-29T09:54:44.065Z,26.33
2022-08-29T09:55:45.293Z,26.89
2022-08-29T09:56:47.996Z,27.13
2022-08-29T09:57:44.077Z,26.30
2022-08-29T09:58:44.044Z,26.33
2022-08-29T09:59:45.266Z,26.03
2022-08-29T10:00:44.124Z,26.60
2022-08-29T10:01:44.061Z,26.78
2022-08-29T10:02:44.174Z,26.75
2022-08-29T10:03:44.031Z,26.76
2022-08-29T10:04:44.039Z,26.70
2022-08-29T10:05:44.009Z,26.75
2022-08-29T10:06:48.408Z,26.58
2022-08-29T10:07:46.070Z,26.42
2022-08-29T10:08:44.103Z,26.20
2022-08-29T10:09:43.978Z,26.23
2022-08-29T10:10:43.980Z,26.31
2022-08-29T10:11:43.975Z,26.10
2022-08-29T10:12:43.969Z,25.71
2022-08-29T10:13:43.955Z,25.77
2022-08-29T10:14:50.329Z,26.39
2022-08-29T10:15:51.038Z,26.33
2022-08-29T10:16:46.007Z,26.58
2022-08-29T10:17:43.944Z,26.63
2022-08-29T10:18:43.921Z,26.98
2022-08-29T10:19:43.944Z,27.68
2022-08-29T10:20:43.905Z,27.95
2022-08-29T10:21:43.919Z,28.17
2022-08-29T10:22:43.909Z,27.58
2022-08-29T10:23:43.898Z,27.01
2022-08-29T10:24:43.898Z,26.56
2022-08-29T10:25:43.925Z,25.93
2022-08-29T10:26:43.912Z,26.03
2022-08-29T10:27:43.879Z,25.82
2022-08-29T10:28:43.864Z,26.24
2022-08-29T10:29:43.899Z,26.12
2022-08-29T10:30:43.988Z,26.24
2022-08-29T10:31:43.987Z,26.30
2022-08-29T10:32:43.853Z,26.11
2022-08-29T10:33:43.835Z,26.27
2022-08-29T10:34:43.848Z,26.76
2022-08-29T10:36:15.898Z,26.98
2022-08-29T10:36:43.841Z,27.12
2022-08-29T10:37:43.829Z,27.13
2022-08-29T10:38:43.826Z,27.00
2022-08-29T10:39:43.822Z,26.95
2022-08-29T10:40:43.941Z,26.97
2022-08-29T10:41:48.313Z,27.20
2022-08-29T10:42:44.803Z,26.79
2022-08-29T10:43:43.782Z,26.26
2022-08-29T10:44:43.791Z,26.15
2022-08-29T10:45:43.876Z,25.89
2022-08-29T10:46:43.805Z,25.89
2022-08-29T10:47:43.779Z,26.01
2022-08-29T10:48:43.787Z,25.89
2022-08-29T10:49:44.972Z,25.53
2022-08-29T10:50:45.316Z,25.21
2022-08-29T10:51:44.779Z,24.96
2022-08-29T10:52:43.756Z,25.14
2022-08-29T10:53:43.742Z,25.04
2022-08-29T10:54:43.743Z,24.38
2022-08-29T10:55:43.724Z,24.68
2022-08-29T10:56:43.742Z,24.86
2022-08-29T10:57:43.829Z,24.91
2022-08-29T10:58:43.717Z,24.99
2022-08-29T10:59:43.704Z,25.11
2022-08-29T11:00:43.731Z,24.86
2022-08-29T11:01:44.769Z,24.78
2022-08-29T11:02:43.797Z,25.11
2022-08-29T11:03:43.702Z,25.30
2022-08-29T11:04:43.682Z,25.49
2022-08-29T11:05:43.690Z,25.83
2022-08-29T11:06:43.691Z,25.71
2022-08-29T11:07:43.674Z,24.52
2022-08-29T11:08:43.684Z,24.25
2022-08-29T11:09:43.660Z,24.56
2022-08-29T11:10:43.639Z,24.85
2022-08-29T11:11:43.658Z,24.81
2022-08-29T11:12:43.651Z,25.06
2022-08-29T11:13:43.652Z,25.18
2022-08-29T11:14:43.631Z,25.55
2022-08-29T11:15:43.613Z,26.11
2022-08-29T11:16:43.650Z,25.93
2022-08-29T11:17:43.618Z,25.82
2022-08-29T11:18:43.614Z,26.07
2022-08-29T11:19:43.619Z,26.04
2022-08-29T11:20:43.604Z,26.26
2022-08-29T11:21:43.595Z,26.41
2022-08-29T11:22:43.569Z,26.21
2022-08-29T11:23:43.583Z,26.33
2022-08-29T11:24:47.029Z,26.27
2022-08-29T11:25:44.566Z,26.27
2022-08-29T11:26:43.572Z,26.15
2022-08-29T11:27:43.562Z,25.77
2022-08-29T11:29:43.558Z,25.30
2022-08-29T11:30:46.080Z,25.28
2022-08-29T11:31:43.612Z,25.43
2022-08-29T11:32:43.524Z,25.27
2022-08-29T11:33:43.529Z,25.16
2022-08-29T11:34:43.510Z,25.11
2022-08-29T11:35:43.638Z,25.27
2022-08-29T11:36:43.519Z,24.96
2022-08-29T11:37:43.485Z,24.82
2022-08-29T11:38:43.498Z,24.48
2022-08-29T11:39:43.495Z,24.22
2022-08-29T11:41:44.654Z,24.60
2022-08-29T11:42:51.011Z,24.68
2022-08-29T11:43:45.471Z,24.91
2022-08-29T11:44:43.457Z,25.06
2022-08-29T11:45:43.448Z,25.21
2022-08-29T11:46:43.522Z,25.11
2022-08-29T11:47:43.578Z,25.34
2022-08-29T11:48:43.438Z,25.56
2022-08-29T11:49:43.451Z,25.77
2022-08-29T11:50:43.464Z,25.55
2022-08-29T11:51:43.420Z,25.46
2022-08-29T11:52:43.537Z,25.01
2022-08-29T11:53:43.398Z,24.86
2022-08-29T11:54:43.401Z,24.51
2022-08-29T11:55:43.406Z,24.31
2022-08-29T11:56:43.404Z,24.53
2022-08-29T11:57:43.389Z,24.81
2022-08-29T11:58:43.482Z,25.19
2022-08-29T11:59:43.373Z,25.46
2022-08-29T12:00:43.382Z,25.67
2022-08-29T12:01:43.400Z,25.90
2022-08-29T12:02:48.294Z,25.61
2022-08-29T12:03:44.450Z,25.36
2022-08-29T12:04:43.364Z,25.22
2022-08-29T12:05:43.329Z,25.73
2022-08-29T12:06:43.317Z,26.01
2022-08-29T12:07:43.339Z,26.04
2022-08-29T12:08:43.322Z,25.83
2022-08-29T12:09:43.344Z,25.88
2022-08-29T12:10:43.305Z,25.95
2022-08-29T12:11:43.315Z,26.04
2022-08-29T12:12:43.310Z,26.01
2022-08-29T12:13:43.292Z,25.78
2022-08-29T12:14:43.390Z,26.20
2022-08-29T12:15:43.281Z,26.12
2022-08-29T12:16:43.360Z,26.19
2022-08-29T12:18:00.991Z,26.10
2022-08-29T12:18:45.283Z,25.48
2022-08-29T12:19:43.269Z,25.67
2022-08-29T12:20:43.308Z,25.82
2022-08-29T12:21:43.252Z,25.53
2022-08-29T12:23:43.234Z,24.82
2022-08-29T12:24:43.243Z,24.71
2022-08-29T12:25:43.367Z,24.85
2022-08-29T12:26:43.210Z,25.11
2022-08-29T12:27:43.224Z,25.43
2022-08-29T12:28:43.211Z,25.74
2022-08-29T12:29:44.727Z,25.98
2022-08-29T12:30:43.209Z,26.08
2022-08-29T12:31:56.376Z,25.88
2022-08-29T12:32:45.211Z,25.53
2022-08-29T12:33:43.192Z,25.31
2022-08-29T12:34:43.164Z,25.58
2022-08-29T12:35:43.177Z,25.33
2022-08-29T12:36:52.443Z,25.23
2022-08-29T12:37:44.175Z,25.49
2022-08-29T12:38:43.158Z,25.96
2022-08-29T12:39:43.187Z,26.08
2022-08-29T12:40:43.198Z,25.75
2022-08-29T12:41:43.151Z,25.93
2022-08-29T12:42:43.201Z,25.71
2022-08-29T12:43:43.133Z,25.33
2022-08-29T12:44:43.257Z,25.49
2022-08-29T12:45:43.129Z,25.19
2022-08-29T12:46:43.156Z,25.22
2022-08-29T12:47:45.985Z,24.97
2022-08-29T12:48:43.101Z,25.00
2022-08-29T12:49:43.089Z,24.97
2022-08-29T12:50:43.168Z,25.08
2022-08-29T12:51:43.110Z,25.33
2022-08-29T12:52:43.098Z,25.38
2022-08-29T12:53:43.091Z,25.31
2022-08-29T12:54:45.910Z,25.19
2022-08-29T12:55:43.060Z,25.06
2022-08-29T12:56:43.065Z,25.11
2022-08-29T12:57:43.048Z,25.26
2022-08-29T12:58:43.057Z,25.38
2022-08-29T12:59:43.042Z,24.86
2022-08-29T13:00:43.034Z,24.99
2022-08-29T13:01:43.117Z,25.21
2022-08-29T13:02:43.032Z,25.45